Time;durP1;ratioP1;P1;durP2;ratioP2;P2;SDS_P1;SDS_P2;PMS_P1;PMS_P2;Temp;Humidity;BMP_temperature;BMP_pressure;BME280_temperature;BME280_humidity;BME280_pressure;Samples;Min_cycle;Max_cycle;Signal;HPM_P1;HPM_P2
2021/04/01 00:02:13;;;;;;;17.13;10.77;;;11.30;99.90;;;;;;5073521;28;20294;-75
2021/04/01 00:04:39;;;;;;;18.27;9.63;;;11.20;99.90;;;;;;5074638;28;20315;-75
2021/04/01 00:07:05;;;;;;;17.50;10.77;;;11.20;99.90;;;;;;5074783;28;20297;-75
2021/04/01 00:09:32;;;;;;;18.20;11.20;;;11.10;99.90;;;;;;5075048;28;20290;-74
2021/04/01 00:11:59;;;;;;;16.73;10.43;;;11.10;99.90;;;;;;5074849;28;20240;-75
2021/04/01 00:14:26;;;;;;;14.30;9.90;;;11.10;99.90;;;;;;5075067;28;20227;-75
2021/04/01 00:16:53;;;;;;;17.60;10.57;;;11.00;99.90;;;;;;5073795;28;20747;-75
2021/04/01 00:19:19;;;;;;;16.90;11.10;;;11.00;99.90;;;;;;5074598;28;20307;-75
2021/04/01 00:21:46;;;;;;;15.20;10.00;;;11.00;99.90;;;;;;5073955;28;21724;-75
2021/04/01 00:24:12;;;;;;;15.80;10.77;;;11.00;99.90;;;;;;5074526;28;20231;-79
2021/04/01 00:26:38;;;;;;;17.23;10.30;;;11.00;99.90;;;;;;5074472;28;20343;-79
2021/04/01 00:29:06;;;;;;;15.33;10.23;;;11.00;99.90;;;;;;5074460;28;20296;-79
2021/04/01 00:31:32;;;;;;;16.30;9.73;;;11.00;99.90;;;;;;5054852;28;20358;-79
2021/04/01 00:33:59;;;;;;;13.80;10.20;;;11.00;99.90;;;;;;5055129;28;20232;-79
2021/04/01 00:36:25;;;;;;;13.87;10.53;;;11.10;99.90;;;;;;5054866;28;20204;-80
2021/04/01 00:38:52;;;;;;;16.73;9.87;;;11.20;99.90;;;;;;5054773;28;20206;-80
2021/04/01 00:41:19;;;;;;;19.23;9.90;;;11.30;99.90;;;;;;5066916;28;20299;-79
2021/04/01 00:43:46;;;;;;;22.20;9.63;;;11.40;99.90;;;;;;5074988;28;20294;-80
2021/04/01 00:46:13;;;;;;;14.10;9.40;;;11.60;99.90;;;;;;5074064;28;20271;-79
2021/04/01 00:48:39;;;;;;;15.10;9.20;;;11.80;99.90;;;;;;5074544;28;20585;-79
2021/04/01 00:51:06;;;;;;;16.83;9.27;;;12.00;99.90;;;;;;5075038;28;20228;-79
2021/04/01 00:53:32;;;;;;;18.57;9.77;;;12.00;99.90;;;;;;5074205;28;20288;-79
2021/04/01 00:55:59;;;;;;;17.40;10.20;;;11.80;99.90;;;;;;5073580;28;20246;-80
2021/04/01 00:58:26;;;;;;;14.37;9.33;;;11.60;99.90;;;;;;5074495;28;20634;-80
2021/04/01 01:01:02;;;;;;;15.47;9.03;;;11.40;99.90;;;;;;5068546;28;20284;-80
2021/04/01 01:03:30;;;;;;;14.43;9.47;;;11.30;99.90;;;;;;5074421;28;20250;-80
2021/04/01 01:05:56;;;;;;;18.20;9.20;;;11.30;99.90;;;;;;5074150;28;20232;-80
2021/04/01 01:08:22;;;;;;;14.00;9.37;;;11.20;99.90;;;;;;5074275;28;20334;-79
2021/04/01 01:10:49;;;;;;;15.40;9.50;;;11.10;99.90;;;;;;5074009;28;20286;-79
2021/04/01 01:13:16;;;;;;;13.47;9.43;;;11.00;99.90;;;;;;5073481;28;20342;-79
2021/04/01 01:15:42;;;;;;;15.43;9.93;;;11.00;99.90;;;;;;5073190;28;20278;-79
2021/04/01 01:18:09;;;;;;;16.40;9.10;;;11.00;99.90;;;;;;5073743;28;20290;-80
2021/04/01 01:20:36;;;;;;;14.10;9.07;;;11.10;99.90;;;;;;5073751;28;20743;-79
2021/04/01 01:23:08;;;;;;;13.73;8.23;;;11.20;99.90;;;;;;5074233;28;20401;-80
2021/04/01 01:25:35;;;;;;;17.67;8.97;;;11.20;99.90;;;;;;5056665;28;20261;-80
2021/04/01 01:28:05;;;;;;;14.57;7.83;;;11.20;99.90;;;;;;5073553;28;20199;-80
2021/04/01 01:30:33;;;;;;;15.67;8.10;;;11.30;99.90;;;;;;5074286;28;20666;-79
2021/04/01 01:33:03;;;;;;;14.17;8.03;;;11.40;99.90;;;;;;5073797;28;20296;-79
2021/04/01 01:35:32;;;;;;;14.93;8.33;;;11.50;99.90;;;;;;5073926;28;20195;-80
2021/04/01 01:38:01;;;;;;;13.57;7.70;;;11.60;99.90;;;;;;5073854;28;20257;-79
2021/04/01 01:40:29;;;;;;;14.90;8.07;;;11.60;99.90;;;;;;5072912;28;20299;-80
2021/04/01 01:42:59;;;;;;;11.83;8.17;;;11.40;99.90;;;;;;5073587;28;20230;-79
2021/04/01 01:45:27;;;;;;;11.40;8.17;;;11.20;99.90;;;;;;5072956;28;20314;-80
2021/04/01 01:47:54;;;;;;;13.67;7.37;;;11.20;99.90;;;;;;5073286;28;20235;-80
2021/04/01 01:50:22;;;;;;;14.03;8.40;;;11.10;99.90;;;;;;5073530;28;20200;-79
2021/04/01 01:52:49;;;;;;;13.60;8.07;;;11.00;99.90;;;;;;5073262;28;20286;-80
2021/04/01 01:55:15;;;;;;;11.33;7.97;;;11.00;99.90;;;;;;5073326;28;20231;-79
2021/04/01 01:57:42;;;;;;;12.30;7.83;;;10.90;99.90;;;;;;5073016;28;20243;-79
2021/04/01 02:00:14;;;;;;;13.23;7.57;;;10.80;99.90;;;;;;5072978;28;20643;-79
2021/04/01 02:02:50;;;;;;;14.83;7.97;;;10.70;99.90;;;;;;5072364;28;20262;-79
2021/04/01 02:05:17;;;;;;;12.70;8.43;;;10.60;99.90;;;;;;5073083;28;20223;-80
2021/04/01 02:07:44;;;;;;;11.40;7.77;;;10.60;99.90;;;;;;5072921;28;20333;-79
2021/04/01 02:10:11;;;;;;;12.30;8.37;;;10.50;99.90;;;;;;5071639;28;20738;-79
2021/04/01 02:12:40;;;;;;;17.70;7.63;;;10.30;99.90;;;;;;5072208;28;20243;-80
2021/04/01 02:15:12;;;;;;;14.07;8.20;;;10.20;99.90;;;;;;5072612;28;20329;-80
2021/04/01 02:17:39;;;;;;;12.97;7.67;;;10.10;99.90;;;;;;5073229;28;20203;-79
2021/04/01 02:20:07;;;;;;;15.83;8.60;;;10.00;99.90;;;;;;5072725;28;20202;-80
2021/04/01 02:22:33;;;;;;;11.93;8.13;;;10.00;99.90;;;;;;5072440;28;20230;-79
2021/04/01 02:25:00;;;;;;;13.03;8.30;;;10.00;99.90;;;;;;5072400;28;20306;-81
2021/04/01 02:27:27;;;;;;;12.07;8.13;;;10.00;99.90;;;;;;5072187;28;20230;-81
2021/04/01 02:29:53;;;;;;;15.07;8.93;;;10.00;99.90;;;;;;5070934;28;20813;-81
2021/04/01 02:32:21;;;;;;;14.10;8.73;;;10.10;99.90;;;;;;5073063;28;20228;-79
2021/04/01 02:34:48;;;;;;;16.20;9.80;;;10.20;99.90;;;;;;5072248;28;20252;-80
2021/04/01 02:37:15;;;;;;;13.77;8.50;;;10.10;99.90;;;;;;5072838;28;20287;-81
2021/04/01 02:39:42;;;;;;;14.63;9.23;;;10.20;99.90;;;;;;5072430;28;20281;-81
2021/04/01 02:42:10;;;;;;;13.87;8.53;;;10.20;99.90;;;;;;5072181;28;20290;-81
2021/04/01 02:44:37;;;;;;;15.07;9.10;;;10.20;99.90;;;;;;5072413;28;20262;-81
2021/04/01 02:47:05;;;;;;;13.73;8.50;;;10.20;99.90;;;;;;5072372;28;20231;-81
2021/04/01 02:49:33;;;;;;;13.53;9.00;;;10.10;99.90;;;;;;5072092;28;20391;-80
2021/04/01 02:51:59;;;;;;;12.83;9.07;;;10.00;99.90;;;;;;5072511;28;20275;-80
2021/04/01 02:54:26;;;;;;;15.67;8.67;;;9.90;99.90;;;;;;5072328;28;20202;-81
2021/04/01 02:56:52;;;;;;;14.90;9.13;;;9.90;99.90;;;;;;5071777;28;20749;-81
2021/04/01 02:59:19;;;;;;;12.43;8.60;;;9.90;99.90;;;;;;5072061;28;20336;-80
2021/04/01 03:01:45;;;;;;;12.80;7.90;;;9.80;99.90;;;;;;5060109;28;20643;-81
2021/04/01 03:04:12;;;;;;;11.83;8.57;;;9.80;99.90;;;;;;5057919;28;20206;-80
2021/04/01 03:06:39;;;;;;;13.87;8.93;;;9.80;99.90;;;;;;5071758;28;20210;-80
2021/04/01 03:09:06;;;;;;;11.83;8.97;;;9.80;99.90;;;;;;5071842;28;20221;-81
2021/04/01 03:11:32;;;;;;;12.93;7.53;;;9.80;99.90;;;;;;5071473;28;20281;-81
2021/04/01 03:13:59;;;;;;;12.93;7.83;;;9.80;99.90;;;;;;5071608;28;20330;-80
2021/04/01 03:16:26;;;;;;;10.37;7.20;;;9.80;99.90;;;;;;5070770;28;20214;-80
2021/04/01 03:18:52;;;;;;;12.10;8.17;;;9.80;99.90;;;;;;5071360;28;20657;-81
2021/04/01 03:21:19;;;;;;;12.63;8.27;;;9.90;99.90;;;;;;5071816;28;20277;-80
2021/04/01 03:23:46;;;;;;;14.90;7.60;;;10.00;99.90;;;;;;5071852;28;20290;-80
2021/04/01 03:26:12;;;;;;;12.10;7.73;;;10.10;99.90;;;;;;5070859;28;20343;-80
2021/04/01 03:28:39;;;;;;;10.27;6.80;;;10.30;99.90;;;;;;5070485;28;20329;-81
2021/04/01 03:31:05;;;;;;;10.63;7.30;;;10.40;99.90;;;;;;5059238;28;20286;-81
2021/04/01 03:33:32;;;;;;;16.00;7.33;;;10.70;99.90;;;;;;5071320;28;20253;-80
2021/04/01 03:35:59;;;;;;;12.00;7.60;;;10.70;99.90;;;;;;5053967;28;20675;-80
2021/04/01 03:38:27;;;;;;;10.47;7.27;;;10.70;99.90;;;;;;5071696;28;20206;-81
2021/04/01 03:40:55;;;;;;;13.30;7.87;;;10.80;99.90;;;;;;5071594;28;20205;-80
2021/04/01 03:43:25;;;;;;;15.40;7.33;;;10.90;99.90;;;;;;5071672;28;20301;-80
2021/04/01 03:45:51;;;;;;;12.67;7.37;;;10.90;99.90;;;;;;5071657;28;20233;-81
2021/04/01 03:48:18;;;;;;;11.90;7.00;;;10.90;99.90;;;;;;5071562;28;20308;-80
2021/04/01 03:50:44;;;;;;;16.23;6.90;;;10.90;99.90;;;;;;5071454;28;20202;-80
2021/04/01 03:53:12;;;;;;;13.53;7.33;;;10.80;99.90;;;;;;5070979;28;20562;-81
2021/04/01 03:55:41;;;;;;;11.83;7.33;;;10.70;99.90;;;;;;5071381;28;20198;-81
2021/04/01 04:03:53;;;;;;;12.97;7.70;;;10.70;99.90;;;;;;5072481;28;20309;-79
2021/04/01 04:06:32;;;;;;;12.30;7.47;;;10.70;99.90;;;;;;5071556;28;20229;-81
2021/04/01 04:09:09;;;;;;;11.50;7.40;;;10.60;99.90;;;;;;5071526;28;20202;-81
2021/04/01 04:11:38;;;;;;;10.07;7.07;;;10.60;99.90;;;;;;5063823;28;20198;-80
2021/04/01 04:14:09;;;;;;;11.30;7.17;;;10.50;99.90;;;;;;5070584;28;20215;-80
2021/04/01 04:16:36;;;;;;;14.33;7.63;;;10.40;99.90;;;;;;5071598;28;20192;-80
2021/04/01 04:19:02;;;;;;;12.53;7.50;;;10.20;99.90;;;;;;5071259;28;20265;-80
2021/04/01 04:21:28;;;;;;;11.43;7.63;;;10.10;99.90;;;;;;5071087;28;20250;-79
2021/04/01 04:23:55;;;;;;;12.23;7.50;;;9.90;99.90;;;;;;5071237;28;20195;-80
2021/04/01 04:26:23;;;;;;;11.13;7.40;;;9.90;99.90;;;;;;5071305;28;20301;-81
2021/04/01 04:28:49;;;;;;;15.57;7.77;;;9.90;99.90;;;;;;5070934;28;20198;-80
2021/04/01 04:31:17;;;;;;;12.37;6.97;;;9.80;99.90;;;;;;5064651;28;20231;-80
2021/04/01 04:33:43;;;;;;;11.97;7.07;;;9.80;99.90;;;;;;5074780;28;20227;-81
2021/04/01 04:36:10;;;;;;;11.53;7.40;;;9.80;99.90;;;;;;5074881;28;20282;-80
2021/04/01 04:38:36;;;;;;;13.47;7.03;;;9.70;99.90;;;;;;5074306;28;20199;-80
2021/04/01 04:41:04;;;;;;;13.57;7.13;;;9.80;99.90;;;;;;5074800;28;20289;-80
2021/04/01 04:43:31;;;;;;;13.77;7.33;;;9.70;99.90;;;;;;5075022;28;20235;-81
2021/04/01 04:45:58;;;;;;;13.50;6.53;;;9.70;99.90;;;;;;5074533;28;20317;-80
2021/04/01 04:48:27;;;;;;;11.93;6.90;;;9.70;99.90;;;;;;5074382;28;20204;-81
2021/04/01 04:50:53;;;;;;;12.73;7.17;;;9.80;99.90;;;;;;5074379;28;20746;-80
2021/04/01 04:53:20;;;;;;;13.73;7.13;;;9.80;99.90;;;;;;5074314;28;20285;-81
2021/04/01 04:55:58;;;;;;;11.93;6.93;;;9.80;99.90;;;;;;5074560;28;20218;-80
2021/04/01 04:58:28;;;;;;;12.43;7.20;;;9.80;99.90;;;;;;5074732;28;20202;-80
2021/04/01 05:01:02;;;;;;;8.90;7.07;;;9.70;99.90;;;;;;5072949;28;20272;-80
2021/04/01 05:06:32;;;;;;;11.33;6.60;;;9.60;99.90;;;;;;5074030;28;20232;-79
2021/04/01 05:08:59;;;;;;;11.23;7.80;;;9.60;99.90;;;;;;5069295;28;20203;-80
2021/04/01 05:11:25;;;;;;;9.80;6.47;;;9.50;99.90;;;;;;5074378;28;20206;-80
2021/04/01 05:13:52;;;;;;;11.57;6.93;;;9.40;99.90;;;;;;5073109;28;20268;-79
2021/04/01 05:16:18;;;;;;;9.07;6.57;;;9.40;99.90;;;;;;5074006;28;20282;-79
2021/04/01 05:18:47;;;;;;;10.67;6.97;;;9.30;99.90;;;;;;5074009;28;20649;-82
2021/04/01 05:21:14;;;;;;;12.37;6.70;;;9.30;99.90;;;;;;5062092;28;20758;-84
2021/04/01 05:23:44;;;;;;;11.17;7.03;;;9.30;99.90;;;;;;5073031;28;20388;-84
2021/04/01 05:29:03;;;;;;;11.87;7.20;;;9.20;99.90;;;;;;5055482;28;20672;-83
2021/04/01 05:31:33;;;;;;;17.17;7.33;;;9.00;99.90;;;;;;5061976;28;20298;-82
2021/04/01 05:34:00;;;;;;;11.93;6.83;;;9.00;99.90;;;;;;5072898;28;20196;-82
2021/04/01 05:36:28;;;;;;;12.50;7.03;;;8.80;99.90;;;;;;5072305;28;20281;-83
2021/04/01 05:38:56;;;;;;;13.13;7.40;;;8.70;99.90;;;;;;5072163;28;20198;-81
2021/04/01 05:41:27;;;;;;;12.70;6.87;;;8.70;99.90;;;;;;5069361;28;20208;-83
2021/04/01 05:44:03;;;;;;;16.57;7.57;;;8.70;99.90;;;;;;5067991;28;20229;-83
2021/04/01 05:46:35;;;;;;;14.00;7.63;;;8.70;99.90;;;;;;5068293;28;20220;-82
2021/04/01 05:49:11;;;;;;;14.67;7.37;;;8.70;99.90;;;;;;5072922;28;20213;-83
2021/04/01 06:03:05;;;;;;;12.27;6.97;;;8.60;99.90;;;;;;5057598;28;20195;-83
2021/04/01 06:05:35;;;;;;;13.27;7.20;;;8.60;99.90;;;;;;5086022;28;20215;-83
2021/04/01 06:08:07;;;;;;;13.97;7.53;;;8.70;99.90;;;;;;5071818;28;20212;-83
2021/04/01 06:10:35;;;;;;;11.07;7.40;;;8.80;99.90;;;;;;5061639;28;20250;-84
2021/04/01 06:13:07;;;;;;;12.63;8.37;;;8.90;99.90;;;;;;5071564;28;20218;-83
2021/04/01 06:15:35;;;;;;;14.10;7.80;;;9.00;99.90;;;;;;5070440;28;20205;-84
2021/04/01 06:18:10;;;;;;;13.80;7.83;;;9.20;99.90;;;;;;5072162;28;20297;-83
2021/04/01 06:20:39;;;;;;;12.93;7.70;;;9.40;99.90;;;;;;5072073;28;20678;-84
2021/04/01 06:23:05;;;;;;;12.10;7.07;;;9.60;99.90;;;;;;5071445;28;20692;-83
2021/04/01 06:25:36;;;;;;;13.90;6.40;;;9.90;99.90;;;;;;5071863;28;20261;-83
2021/04/01 06:28:06;;;;;;;12.73;6.57;;;10.40;99.90;;;;;;5072471;28;20205;-83
2021/04/01 06:30:44;;;;;;;11.67;6.80;;;10.70;99.90;;;;;;5072122;28;20645;-83
2021/04/01 06:33:11;;;;;;;14.67;6.97;;;10.90;99.90;;;;;;5072196;28;20207;-83
2021/04/01 06:35:45;;;;;;;10.83;6.80;;;11.10;99.90;;;;;;5071339;28;20195;-83
2021/04/01 06:38:31;;;;;;;14.57;7.20;;;11.30;99.90;;;;;;5057803;28;20243;-83
2021/04/01 06:41:00;;;;;;;11.07;6.23;;;11.30;99.90;;;;;;5070514;28;21659;-83
2021/04/01 06:43:50;;;;;;;12.10;6.80;;;11.40;99.90;;;;;;5071555;28;20206;-83
2021/04/01 06:46:18;;;;;;;12.97;6.40;;;11.60;99.90;;;;;;5071840;28;20731;-83
2021/04/01 06:51:46;;;;;;;12.67;6.43;;;12.20;99.90;;;;;;5071710;28;20236;-82
2021/04/01 06:54:21;;;;;;;10.47;6.03;;;12.70;99.90;;;;;;5067762;28;20213;-83
2021/04/01 06:57:04;;;;;;;15.30;6.73;;;13.00;99.90;;;;;;5071495;28;20221;-83
2021/04/01 06:59:41;;;;;;;12.70;6.57;;;13.40;99.90;;;;;;5065760;28;20195;-83
2021/04/01 07:02:16;;;;;;;15.27;6.27;;;13.70;99.90;;;;;;5071031;28;20191;-82
2021/04/01 07:04:46;;;;;;;12.10;6.00;;;14.20;99.90;;;;;;5071462;28;20248;-83
2021/04/01 07:07:17;;;;;;;19.73;6.30;;;14.60;99.90;;;;;;5070727;28;20281;-83
2021/04/01 07:10:06;;;;;;;13.30;6.30;;;15.00;99.90;;;;;;5071854;28;20691;-82
2021/04/01 07:12:36;;;;;;;11.70;6.30;;;15.40;99.90;;;;;;5070386;28;20215;-82
2021/04/01 07:15:11;;;;;;;13.37;5.80;;;15.80;99.90;;;;;;5071141;28;20201;-82
2021/04/01 07:17:40;;;;;;;13.80;6.03;;;16.20;99.90;;;;;;5070745;28;20249;-82
2021/04/01 07:34:37;;;;;;;12.38;5.72;;;17.60;99.90;;;;;;4893373;29;20201;-83
2021/04/01 07:48:36;;;;;;;10.65;5.72;;;19.10;99.90;;;;;;4817004;29;20291;-85
2021/04/01 07:51:03;;;;;;;8.55;5.60;;;19.40;99.90;;;;;;4816853;29;20204;-85
2021/04/01 07:53:30;;;;;;;10.90;5.97;;;20.00;99.90;;;;;;4811357;29;20291;-85
2021/04/01 07:56:05;;;;;;;15.40;5.90;;;20.30;99.90;;;;;;4825906;29;20203;-85
2021/04/01 08:01:34;;;;;;;10.57;5.60;;;21.00;99.90;;;;;;4827246;29;20621;-86
2021/04/01 08:04:03;;;;;;;12.10;6.05;;;21.00;99.90;;;;;;4856456;29;20747;-85
2021/04/01 08:06:31;;;;;;;13.77;5.70;;;21.30;99.90;;;;;;4858484;29;20719;-85
2021/04/01 08:09:03;;;;;;;10.60;5.75;;;21.30;99.90;;;;;;4915381;29;20211;-84
2021/04/01 08:11:35;;;;;;;10.80;5.57;;;21.70;99.90;;;;;;4961688;28;20207;-85
2021/04/01 08:14:08;;;;;;;10.25;5.60;;;21.30;99.90;;;;;;4967491;28;20718;-85
2021/04/01 08:16:40;;;;;;;11.00;5.72;;;21.90;99.90;;;;;;4973179;28;20220;-84
2021/04/01 08:19:11;;;;;;;11.45;5.47;;;21.60;99.90;;;;;;4983916;28;20224;-86
2021/04/01 08:21:41;;;;;;;12.40;5.50;;;21.60;99.90;;;;;;5032172;28;20236;-86
2021/04/01 08:24:13;;;;;;;15.98;5.60;;;21.90;99.90;;;;;;5032756;28;20279;-86
2021/04/01 08:26:52;;;;;;;9.88;5.30;;;22.00;99.90;;;;;;5031707;28;20307;-86
2021/04/01 08:32:20;;;;;;;12.23;5.35;;;22.40;99.90;;;;;;5029568;28;20193;-85
2021/04/01 08:34:49;;;;;;;12.73;5.35;;;22.10;99.90;;;;;;5029952;28;20204;-85
2021/04/01 08:37:17;;;;;;;11.45;5.50;;;22.50;99.90;;;;;;5036447;28;20208;-85
2021/04/01 08:39:45;;;;;;;10.30;5.00;;;23.00;99.90;;;;;;5073645;28;20226;-85
2021/04/01 08:42:43;;;;;;;6.55;4.97;;;23.60;99.90;;;;;;5073854;28;20641;-86
2021/04/01 08:45:33;;;;;;;10.07;4.72;;;23.90;99.90;;;;;;5073738;28;20229;-86
2021/04/01 08:48:34;;;;;;;10.45;5.03;;;24.00;99.90;;;;;;5072542;28;20245;-86
2021/04/01 08:51:26;;;;;;;11.38;5.05;;;24.70;99.90;;;;;;5041574;28;20574;-84
2021/04/01 08:54:00;;;;;;;11.50;5.25;;;24.20;99.90;;;;;;5073528;28;20201;-86
2021/04/01 08:56:37;;;;;;;19.67;5.47;;;25.00;99.90;;;;;;5073162;28;20220;-85
2021/04/01 08:59:14;;;;;;;15.30;5.63;;;25.00;99.90;;;;;;5073489;28;20203;-84
2021/04/01 09:01:42;;;;;;;10.77;5.85;;;24.80;99.90;;;;;;5084468;28;20223;-86
2021/04/01 09:04:09;;;;;;;10.10;6.10;;;24.80;99.90;;;;;;5072926;28;20274;-86
2021/04/01 09:06:38;;;;;;;9.93;4.80;;;25.50;99.90;;;;;;5065095;28;20258;-86
2021/04/01 09:09:09;;;;;;;9.48;5.32;;;25.70;99.90;;;;;;5073554;28;20643;-86
2021/04/01 09:11:41;;;;;;;11.52;5.20;;;26.40;99.90;;;;;;5073685;28;20624;-86
2021/04/01 09:14:18;;;;;;;11.70;4.72;;;26.30;99.90;;;;;;5071961;28;20215;-84
2021/04/01 09:16:56;;;;;;;11.63;5.30;;;26.30;99.10;;;;;;5073095;28;20198;-86
2021/04/01 09:19:27;;;;;;;9.45;5.20;;;26.10;99.30;;;;;;5074177;28;20199;-86
2021/04/01 09:21:54;;;;;;;8.90;4.88;;;26.90;99.90;;;;;;5072194;28;20715;-86
2021/04/01 09:24:27;;;;;;;10.85;4.60;;;26.80;98.40;;;;;;5073149;28;20195;-86
2021/04/01 09:26:54;;;;;;;11.63;5.15;;;26.50;98.70;;;;;;5073220;28;20221;-86
2021/04/01 09:29:22;;;;;;;8.02;4.57;;;27.00;97.50;;;;;;5073114;28;20250;-87
2021/04/01 09:31:57;;;;;;;6.80;4.47;;;26.40;99.90;;;;;;5073081;28;20797;-86
2021/04/01 09:34:25;;;;;;;11.18;4.80;;;26.40;98.70;;;;;;5074103;28;20225;-86
2021/04/01 09:36:52;;;;;;;10.70;4.80;;;26.50;99.20;;;;;;5074228;28;20206;-86
2021/04/01 09:39:27;;;;;;;10.13;4.68;;;26.50;99.30;;;;;;5072207;28;20696;-87
2021/04/01 09:42:03;;;;;;;8.65;4.45;;;26.50;99.90;;;;;;5074417;28;20635;-87
2021/04/01 09:44:30;;;;;;;12.50;4.53;;;26.30;99.90;;;;;;5073793;28;20230;-86
2021/04/01 09:47:02;;;;;;;8.38;4.72;;;27.20;99.90;;;;;;5074534;28;20273;-87
2021/04/01 09:49:35;;;;;;;7.93;3.88;;;27.40;99.90;;;;;;5073669;28;20285;-87
2021/04/01 09:52:04;;;;;;;11.57;4.28;;;27.90;99.90;;;;;;5073886;28;20238;-87
2021/04/01 09:54:33;;;;;;;9.57;4.00;;;27.10;99.90;;;;;;5072987;28;20308;-87
2021/04/01 09:57:00;;;;;;;9.30;4.35;;;26.60;99.90;;;;;;5073883;28;20205;-86
2021/04/01 09:59:43;;;;;;;9.68;4.15;;;27.10;99.60;;;;;;5073688;28;20609;-86
2021/04/01 10:02:24;;;;;;;11.57;3.78;;;27.50;98.50;;;;;;5073600;28;20194;-85
2021/04/01 10:04:56;;;;;;;10.30;3.78;;;27.90;99.90;;;;;;5074097;28;20250;-86
2021/04/01 10:07:26;;;;;;;10.55;3.70;;;28.80;96.30;;;;;;5073463;28;20626;-83
2021/04/01 10:09:53;;;;;;;7.68;4.13;;;27.90;97.40;;;;;;5073778;28;20207;-86
2021/04/01 10:12:21;;;;;;;6.57;4.07;;;27.90;99.90;;;;;;5072255;28;20302;-85
2021/04/01 10:14:50;;;;;;;10.40;4.00;;;28.30;96.40;;;;;;5073859;28;20203;-85
2021/04/01 10:17:20;;;;;;;12.50;4.20;;;28.00;96.50;;;;;;5072999;28;20195;-86
2021/04/01 10:19:54;;;;;;;7.03;4.03;;;28.40;98.20;;;;;;5073305;28;20199;-85
2021/04/01 10:22:22;;;;;;;8.30;4.30;;;29.40;95.00;;;;;;5070766;28;20265;-86
2021/04/01 10:25:01;;;;;;;11.98;3.97;;;29.00;93.80;;;;;;5073089;28;20246;-86
2021/04/01 10:27:36;;;;;;;12.13;4.28;;;29.10;94.60;;;;;;5072853;28;20546;-86
2021/04/01 10:30:09;;;;;;;12.00;4.45;;;29.10;94.70;;;;;;5072512;28;20233;-86
2021/04/01 10:32:44;;;;;;;9.18;4.40;;;29.80;94.50;;;;;;5071894;28;20227;-85
2021/04/01 10:35:12;;;;;;;7.32;4.68;;;29.50;90.60;;;;;;5070865;28;20665;-85
2021/04/01 10:37:48;;;;;;;8.57;3.80;;;29.10;91.10;;;;;;5071935;28;20285;-86
2021/04/01 10:40:17;;;;;;;9.38;4.07;;;29.50;91.40;;;;;;5071767;28;20635;-87
2021/04/01 10:42:47;;;;;;;6.80;3.92;;;30.20;93.10;;;;;;5071199;28;20237;-87
2021/04/01 10:45:20;;;;;;;8.63;4.03;;;30.00;91.40;;;;;;5071938;28;20639;-86
2021/04/01 10:48:23;;;;;;;5.88;3.95;;;29.10;92.30;;;;;;5071746;28;20303;-86
2021/04/01 10:50:50;;;;;;;7.55;3.70;;;29.30;92.70;;;;;;5071369;28;20207;-85
2021/04/01 10:53:22;;;;;;;8.57;4.07;;;28.70;91.80;;;;;;5072384;28;20252;-85
2021/04/01 10:55:49;;;;;;;8.32;3.50;;;29.20;92.50;;;;;;5071212;28;20374;-86
2021/04/01 10:58:17;;;;;;;7.25;3.47;;;29.80;91.40;;;;;;5071908;28;20195;-85
2021/04/01 11:00:52;;;;;;;6.10;3.45;;;29.90;93.10;;;;;;5071300;28;20252;-85
2021/04/01 11:03:25;;;;;;;8.13;3.90;;;30.10;90.20;;;;;;5062170;28;20252;-86
2021/04/01 11:05:53;;;;;;;8.88;3.38;;;29.70;87.60;;;;;;5071895;28;20307;-86
2021/04/01 11:08:21;;;;;;;7.28;3.00;;;29.80;91.50;;;;;;5072151;28;20285;-85
2021/04/01 11:10:57;;;;;;;9.13;3.00;;;30.40;84.20;;;;;;5071176;28;20247;-86
2021/04/01 11:13:32;;;;;;;7.47;3.35;;;30.70;79.50;;;;;;5071185;28;20222;-86
2021/04/01 11:16:00;;;;;;;8.07;2.80;;;30.40;81.70;;;;;;5086703;28;20284;-84
2021/04/01 11:18:28;;;;;;;4.90;2.50;;;30.40;83.00;;;;;;5072059;28;20199;-84
2021/04/01 11:20:56;;;;;;;5.57;2.60;;;30.60;83.90;;;;;;5086823;28;20693;-85
2021/04/01 11:23:25;;;;;;;6.88;2.45;;;30.40;72.80;;;;;;5061393;28;20695;-88
2021/04/01 11:25:53;;;;;;;4.93;2.60;;;29.90;75.00;;;;;;5065916;28;20227;-87
2021/04/01 11:28:31;;;;;;;6.40;2.75;;;30.00;75.80;;;;;;5070341;28;20199;-87
2021/04/01 11:30:59;;;;;;;11.85;2.70;;;29.70;72.90;;;;;;5062535;28;20758;-87
2021/04/01 11:33:28;;;;;;;9.15;2.60;;;29.80;72.10;;;;;;5070075;28;20199;-87
2021/04/01 11:36:07;;;;;;;4.72;2.92;;;30.10;73.50;;;;;;5069469;28;20703;-87
2021/04/01 11:38:46;;;;;;;6.05;2.78;;;29.40;73.60;;;;;;5063905;28;20264;-86
2021/04/01 11:41:14;;;;;;;5.75;2.90;;;30.00;75.30;;;;;;5072480;28;20210;-87
2021/04/01 11:43:41;;;;;;;6.28;2.58;;;30.40;75.50;;;;;;5076001;28;20624;-87
2021/04/01 11:46:17;;;;;;;9.10;3.08;;;30.00;76.90;;;;;;5075590;28;20726;-85
2021/04/01 11:48:45;;;;;;;5.68;3.20;;;30.50;77.00;;;;;;5076452;28;20281;-81
2021/04/01 11:51:18;;;;;;;5.25;2.90;;;30.20;77.10;;;;;;5076798;28;20294;-86
2021/04/01 11:53:45;;;;;;;6.25;3.08;;;29.60;75.10;;;;;;5075848;28;20199;-85
2021/04/01 11:56:12;;;;;;;5.95;2.90;;;29.40;75.60;;;;;;5076193;28;20206;-85
2021/04/01 11:58:39;;;;;;;7.80;3.20;;;29.80;77.00;;;;;;5077044;28;20565;-86
2021/04/01 12:01:09;;;;;;;11.45;2.88;;;30.00;78.20;;;;;;5077270;28;20290;-85
2021/04/01 12:03:47;;;;;;;5.50;3.17;;;30.00;73.70;;;;;;5075676;28;20203;-86
2021/04/01 12:06:15;;;;;;;6.72;2.80;;;29.80;73.90;;;;;;5075310;28;20222;-85
2021/04/01 12:08:42;;;;;;;6.22;2.80;;;29.60;76.80;;;;;;5063343;28;20556;-85
2021/04/01 12:11:08;;;;;;;9.68;3.42;;;29.10;81.10;;;;;;5075487;28;20286;-85
2021/04/01 12:13:35;;;;;;;5.22;3.05;;;29.90;80.90;;;;;;5074567;28;20315;-85
2021/04/01 12:16:01;;;;;;;8.23;3.10;;;29.30;79.50;;;;;;5075666;28;20803;-85
2021/04/01 12:18:40;;;;;;;11.15;3.72;;;29.00;79.10;;;;;;5075354;28;20664;-85
2021/04/01 12:21:10;;;;;;;5.32;3.33;;;29.50;80.20;;;;;;5075504;28;20324;-85
2021/04/01 12:23:46;;;;;;;7.47;3.60;;;30.00;79.30;;;;;;5075576;28;20574;-85
2021/04/01 12:26:13;;;;;;;6.60;3.08;;;30.40;82.60;;;;;;5075187;28;20693;-86
2021/04/01 12:28:40;;;;;;;5.75;3.05;;;29.50;80.60;;;;;;5075004;28;20227;-86
2021/04/01 12:31:11;;;;;;;8.80;3.30;;;29.00;78.60;;;;;;5074942;28;20286;-86
2021/04/01 12:33:49;;;;;;;5.70;3.60;;;29.40;83.20;;;;;;5074115;28;20203;-86
2021/04/01 12:36:16;;;;;;;6.20;2.97;;;30.30;77.10;;;;;;5074644;28;20202;-86
2021/04/01 12:38:46;;;;;;;6.47;3.55;;;30.90;76.50;;;;;;5074022;28;20381;-85
2021/04/01 12:41:27;;;;;;;9.57;3.83;;;31.00;78.50;;;;;;5075223;28;20236;-85
2021/04/01 12:43:53;;;;;;;6.18;3.30;;;29.80;76.90;;;;;;5075112;28;20260;-85
2021/04/01 12:46:20;;;;;;;7.60;3.33;;;29.30;80.00;;;;;;5073826;28;20230;-85
2021/04/01 12:48:50;;;;;;;9.25;4.30;;;29.50;77.20;;;;;;5073321;28;20286;-86
2021/04/01 12:51:20;;;;;;;8.85;3.60;;;29.30;76.60;;;;;;5068215;28;20207;-85
2021/04/01 12:54:03;;;;;;;8.48;3.45;;;29.30;78.20;;;;;;5071224;28;20195;-85
2021/04/01 12:56:33;;;;;;;9.07;3.83;;;29.10;80.30;;;;;;5073517;28;20581;-86
2021/04/01 12:59:02;;;;;;;6.15;3.47;;;28.80;80.90;;;;;;5073879;28;20641;-86
2021/04/01 13:01:30;;;;;;;7.00;3.63;;;29.10;82.70;;;;;;5074145;28;20203;-85
2021/04/01 13:03:58;;;;;;;5.97;3.65;;;29.80;80.70;;;;;;5073000;28;20229;-85
2021/04/01 13:06:32;;;;;;;7.40;3.55;;;29.90;80.70;;;;;;5073149;28;20227;-86
2021/04/01 13:09:11;;;;;;;8.32;3.55;;;29.80;80.60;;;;;;5072006;28;20609;-85
2021/04/01 13:11:38;;;;;;;7.13;3.08;;;28.80;79.70;;;;;;5073203;28;20644;-85
2021/04/01 13:14:04;;;;;;;6.80;3.53;;;28.80;77.70;;;;;;5072385;28;20791;-85
2021/04/01 13:16:31;;;;;;;9.00;3.45;;;29.10;77.20;;;;;;5073587;28;20230;-88
2021/04/01 13:18:57;;;;;;;9.13;3.30;;;29.30;76.60;;;;;;5072298;28;20221;-87
2021/04/01 13:21:33;;;;;;;10.02;4.15;;;29.20;71.50;;;;;;5072249;28;20296;-87
2021/04/01 13:24:05;;;;;;;7.53;3.50;;;28.90;74.60;;;;;;5072554;28;20225;-87
2021/04/01 13:26:33;;;;;;;5.82;3.30;;;29.70;73.70;;;;;;5072631;28;20229;-86
2021/04/01 13:29:01;;;;;;;9.68;3.45;;;28.80;72.50;;;;;;5072754;28;20979;-87
2021/04/01 13:31:40;;;;;;;8.18;3.20;;;29.00;74.30;;;;;;5072800;28;20278;-86
2021/04/01 13:34:12;;;;;;;7.65;3.03;;;28.80;70.40;;;;;;5069780;28;20199;-86
2021/04/01 13:36:41;;;;;;;6.95;2.85;;;28.40;72.70;;;;;;5066855;28;20682;-86
2021/04/01 13:39:09;;;;;;;5.43;2.72;;;28.40;71.70;;;;;;5070023;28;20203;-87
2021/04/01 13:44:25;;;;;;;10.43;2.97;;;28.40;68.70;;;;;;5065922;28;20191;-86
2021/04/01 13:46:51;;;;;;;6.00;2.70;;;28.90;68.80;;;;;;5072013;28;20287;-86
2021/04/01 13:49:22;;;;;;;3.97;2.55;;;28.60;65.30;;;;;;5072279;28;20289;-86
2021/04/01 13:51:51;;;;;;;9.32;3.13;;;28.30;66.40;;;;;;5072979;28;20199;-86
2021/04/01 13:54:25;;;;;;;5.18;2.50;;;28.00;63.70;;;;;;5072597;28;20241;-86
2021/04/01 13:57:07;;;;;;;8.77;2.70;;;28.50;64.80;;;;;;5072499;28;20245;-86